sensor_id;sensor_type;location;lat;lon;timestamp;P1;durP1;ratioP1;P2;durP2;ratioP2
51226;SDS011;42714;48.260;10.980;2023-09-08T00:00:50;16.6;;;7.9;;
51226;SDS011;42714;48.260;10.980;2023-09-08T00:05:50;17.7;;;9.1;;
51226;SDS011;42714;48.260;10.980;2023-09-08T00:10:50;18.4;;;10.0;;
51226;SDS011;42714;48.260;10.980;2023-09-08T00:15:50;21.3;;;11.2;;
51226;SDS011;42714;48.260;10.980;2023-09-08T00:20:50;19.2;;;10.5;;
51226;SDS011;42714;48.260;10.980;2023-09-08T00:25:50;19.0;;;11.6;;
51226;SDS011;42714;48.260;10.980;2023-09-08T00:30:50;23.6;;;13.4;;
51226;SDS011;42714;48.260;10.980;2023-09-08T00:35:50;27.9;;;13.3;;
51226;SDS011;42714;48.260;10.980;2023-09-08T00:40:50;22.8;;;14.4;;
51226;SDS011;42714;48.260;10.980;2023-09-08T00:45:50;27.6;;;14.6;;
51226;SDS011;42714;48.260;10.980;2023-09-08T00:50:50;25.3;;;14.1;;
51226;SDS011;42714;48.260;10.980;2023-09-08T00:55:50;25.8;;;15.3;;
51226;SDS011;42714;48.260;10.980;2023-09-08T01:00:50;26.8;;;14.5;;
51226;SDS011;42714;48.260;10.980;2023-09-08T01:05:50;23.5;;;14.7;;
51226;SDS011;42714;48.260;10.980;2023-09-08T01:15:50;22.4;;;14.2;;
51226;SDS011;42714;48.260;10.980;2023-09-08T01:25:52;21.8;;;12.7;;
51226;SDS011;42714;48.260;10.980;2023-09-08T01:30:50;28.2;;;14.5;;
51226;SDS011;42714;48.260;10.980;2023-09-08T01:35:51;26.2;;;13.6;;
51226;SDS011;42714;48.260;10.980;2023-09-08T01:40:50;21.4;;;12.4;;
51226;SDS011;42714;48.260;10.980;2023-09-08T01:45:50;23.0;;;12.6;;
51226;SDS011;42714;48.260;10.980;2023-09-08T01:50:50;22.7;;;11.7;;
51226;SDS011;42714;48.260;10.980;2023-09-08T01:55:50;17.8;;;9.8;;
51226;SDS011;42714;48.260;10.980;2023-09-08T02:00:50;21.5;;;12.0;;
51226;SDS011;42714;48.260;10.980;2023-09-08T02:05:50;21.9;;;11.5;;
51226;SDS011;42714;48.260;10.980;2023-09-08T02:10:51;21.3;;;11.9;;
51226;SDS011;42714;48.260;10.980;2023-09-08T02:15:50;24.2;;;13.4;;
51226;SDS011;42714;48.260;10.980;2023-09-08T02:20:50;23.4;;;12.9;;
51226;SDS011;42714;48.260;10.980;2023-09-08T02:25:50;24.2;;;13.6;;
51226;SDS011;42714;48.260;10.980;2023-09-08T02:30:51;25.0;;;14.5;;
51226;SDS011;42714;48.260;10.980;2023-09-08T02:35:51;26.9;;;15.0;;
51226;SDS011;42714;48.260;10.980;2023-09-08T02:40:51;24.2;;;12.7;;
51226;SDS011;42714;48.260;10.980;2023-09-08T02:45:51;39.1;;;16.4;;
51226;SDS011;42714;48.260;10.980;2023-09-08T02:50:51;27.8;;;14.6;;
51226;SDS011;42714;48.260;10.980;2023-09-08T02:55:51;27.1;;;15.3;;
51226;SDS011;42714;48.260;10.980;2023-09-08T03:00:51;25.3;;;14.5;;
51226;SDS011;42714;48.260;10.980;2023-09-08T03:05:53;38.3;;;19.8;;
51226;SDS011;42714;48.260;10.980;2023-09-08T03:10:54;31.9;;;18.9;;
51226;SDS011;42714;48.260;10.980;2023-09-08T03:15:51;31.0;;;18.6;;
51226;SDS011;42714;48.260;10.980;2023-09-08T03:20:51;33.0;;;17.3;;
51226;SDS011;42714;48.260;10.980;2023-09-08T03:25:51;30.7;;;17.6;;
51226;SDS011;42714;48.260;10.980;2023-09-08T03:30:51;29.8;;;17.4;;
51226;SDS011;42714;48.260;10.980;2023-09-08T03:35:51;30.4;;;17.0;;
51226;SDS011;42714;48.260;10.980;2023-09-08T03:40:51;33.1;;;18.4;;
51226;SDS011;42714;48.260;10.980;2023-09-08T03:45:51;34.9;;;20.5;;
51226;SDS011;42714;48.260;10.980;2023-09-08T03:50:51;29.5;;;17.0;;
51226;SDS011;42714;48.260;10.980;2023-09-08T03:55:51;31.4;;;16.9;;
51226;SDS011;42714;48.260;10.980;2023-09-08T04:00:51;29.7;;;15.7;;
51226;SDS011;42714;48.260;10.980;2023-09-08T04:05:51;26.8;;;15.5;;
51226;SDS011;42714;48.260;10.980;2023-09-08T04:10:51;28.8;;;14.9;;
51226;SDS011;42714;48.260;10.980;2023-09-08T04:15:51;30.0;;;16.4;;
51226;SDS011;42714;48.260;10.980;2023-09-08T04:20:51;28.8;;;16.1;;
51226;SDS011;42714;48.260;10.980;2023-09-08T04:25:51;27.7;;;15.7;;
51226;SDS011;42714;48.260;10.980;2023-09-08T04:30:51;25.6;;;13.8;;
51226;SDS011;42714;48.260;10.980;2023-09-08T04:35:51;26.7;;;14.8;;
51226;SDS011;42714;48.260;10.980;2023-09-08T04:40:51;23.4;;;13.0;;
51226;SDS011;42714;48.260;10.980;2023-09-08T04:45:51;26.3;;;14.1;;
51226;SDS011;42714;48.260;10.980;2023-09-08T04:50:51;24.0;;;14.8;;
51226;SDS011;42714;48.260;10.980;2023-09-08T04:55:51;23.8;;;13.5;;
51226;SDS011;42714;48.260;10.980;2023-09-08T05:00:51;27.7;;;15.3;;
51226;SDS011;42714;48.260;10.980;2023-09-08T05:05:51;31.5;;;15.4;;
51226;SDS011;42714;48.260;10.980;2023-09-08T05:10:51;30.0;;;14.7;;
51226;SDS011;42714;48.260;10.980;2023-09-08T05:15:51;21.0;;;12.8;;
51226;SDS011;42714;48.260;10.980;2023-09-08T05:20:51;22.3;;;11.2;;
51226;SDS011;42714;48.260;10.980;2023-09-08T05:25:51;19.1;;;10.1;;
51226;SDS011;42714;48.260;10.980;2023-09-08T05:30:51;17.3;;;9.7;;
51226;SDS011;42714;48.260;10.980;2023-09-08T05:35:51;21.1;;;10.0;;
51226;SDS011;42714;48.260;10.980;2023-09-08T05:40:51;20.0;;;9.4;;
51226;SDS011;42714;48.260;10.980;2023-09-08T05:45:51;21.1;;;9.7;;
51226;SDS011;42714;48.260;10.980;2023-09-08T05:50:51;20.4;;;8.9;;
51226;SDS011;42714;48.260;10.980;2023-09-08T05:55:51;22.4;;;9.3;;
51226;SDS011;42714;48.260;10.980;2023-09-08T06:00:51;13.5;;;7.7;;
51226;SDS011;42714;48.260;10.980;2023-09-08T06:05:51;17.5;;;8.7;;
51226;SDS011;42714;48.260;10.980;2023-09-08T06:10:51;16.7;;;8.2;;
51226;SDS011;42714;48.260;10.980;2023-09-08T06:15:51;23.6;;;8.6;;
51226;SDS011;42714;48.260;10.980;2023-09-08T06:20:51;14.8;;;7.4;;
51226;SDS011;42714;48.260;10.980;2023-09-08T06:25:55;13.7;;;7.0;;
51226;SDS011;42714;48.260;10.980;2023-09-08T06:30:51;34.9;;;9.3;;
51226;SDS011;42714;48.260;10.980;2023-09-08T06:35:51;20.6;;;8.3;;
51226;SDS011;42714;48.260;10.980;2023-09-08T06:40:51;20.5;;;9.2;;
51226;SDS011;42714;48.260;10.980;2023-09-08T06:45:51;16.9;;;9.1;;
51226;SDS011;42714;48.260;10.980;2023-09-08T06:50:53;16.0;;;9.0;;
51226;SDS011;42714;48.260;10.980;2023-09-08T06:55:51;17.8;;;8.9;;
51226;SDS011;42714;48.260;10.980;2023-09-08T07:00:51;18.5;;;8.6;;
51226;SDS011;42714;48.260;10.980;2023-09-08T07:05:51;13.1;;;8.0;;
51226;SDS011;42714;48.260;10.980;2023-09-08T07:10:51;13.1;;;8.0;;
51226;SDS011;42714;48.260;10.980;2023-09-08T07:15:51;16.7;;;7.6;;
51226;SDS011;42714;48.260;10.980;2023-09-08T07:20:51;18.7;;;8.6;;
51226;SDS011;42714;48.260;10.980;2023-09-08T07:25:51;13.2;;;8.2;;
51226;SDS011;42714;48.260;10.980;2023-09-08T07:30:51;11.3;;;7.5;;
51226;SDS011;42714;48.260;10.980;2023-09-08T07:35:51;12.0;;;7.4;;
51226;SDS011;42714;48.260;10.980;2023-09-08T07:40:51;16.9;;;8.6;;
51226;SDS011;42714;48.260;10.980;2023-09-08T07:45:51;21.4;;;8.2;;
51226;SDS011;42714;48.260;10.980;2023-09-08T07:50:51;15.7;;;7.6;;
51226;SDS011;42714;48.260;10.980;2023-09-08T07:55:51;13.5;;;8.0;;
51226;SDS011;42714;48.260;10.980;2023-09-08T08:00:51;9.2;;;6.7;;
51226;SDS011;42714;48.260;10.980;2023-09-08T08:05:51;16.6;;;8.0;;
51226;SDS011;42714;48.260;10.980;2023-09-08T08:10:51;12.9;;;7.4;;
51226;SDS011;42714;48.260;10.980;2023-09-08T08:15:51;10.3;;;7.1;;
51226;SDS011;42714;48.260;10.980;2023-09-08T08:20:51;11.3;;;7.3;;
51226;SDS011;42714;48.260;10.980;2023-09-08T08:25:51;14.3;;;9.0;;
51226;SDS011;42714;48.260;10.980;2023-09-08T08:30:51;12.3;;;7.2;;
51226;SDS011;42714;48.260;10.980;2023-09-08T08:35:51;13.7;;;8.2;;
51226;SDS011;42714;48.260;10.980;2023-09-08T08:40:51;16.0;;;7.3;;
51226;SDS011;42714;48.260;10.980;2023-09-08T08:45:51;15.0;;;8.3;;
51226;SDS011;42714;48.260;10.980;2023-09-08T08:50:51;13.4;;;7.3;;
51226;SDS011;42714;48.260;10.980;2023-09-08T08:55:51;11.2;;;6.9;;
51226;SDS011;42714;48.260;10.980;2023-09-08T09:00:51;14.5;;;6.9;;
51226;SDS011;42714;48.260;10.980;2023-09-08T09:05:51;9.9;;;7.1;;
51226;SDS011;42714;48.260;10.980;2023-09-08T09:10:51;11.4;;;7.1;;
51226;SDS011;42714;48.260;10.980;2023-09-08T09:15:51;13.9;;;7.3;;
51226;SDS011;42714;48.260;10.980;2023-09-08T09:20:54;11.6;;;6.8;;
51226;SDS011;42714;48.260;10.980;2023-09-08T09:25:51;15.1;;;7.7;;
51226;SDS011;42714;48.260;10.980;2023-09-08T09:30:52;14.5;;;7.2;;
51226;SDS011;42714;48.260;10.980;2023-09-08T09:35:52;11.0;;;6.7;;
51226;SDS011;42714;48.260;10.980;2023-09-08T09:40:51;13.0;;;7.8;;
51226;SDS011;42714;48.260;10.980;2023-09-08T09:45:51;12.0;;;6.6;;
51226;SDS011;42714;48.260;10.980;2023-09-08T09:50:51;10.0;;;6.6;;
51226;SDS011;42714;48.260;10.980;2023-09-08T09:55:51;16.0;;;6.6;;
51226;SDS011;42714;48.260;10.980;2023-09-08T10:00:51;10.4;;;6.0;;
51226;SDS011;42714;48.260;10.980;2023-09-08T10:05:51;12.8;;;5.8;;
51226;SDS011;42714;48.260;10.980;2023-09-08T10:10:51;12.8;;;5.7;;
51226;SDS011;42714;48.260;10.980;2023-09-08T10:15:52;8.7;;;5.8;;
51226;SDS011;42714;48.260;10.980;2023-09-08T10:20:51;10.9;;;6.0;;
51226;SDS011;42714;48.260;10.980;2023-09-08T10:25:52;9.8;;;5.1;;
51226;SDS011;42714;48.260;10.980;2023-09-08T10:30:51;10.8;;;5.2;;
51226;SDS011;42714;48.260;10.980;2023-09-08T10:35:51;10.4;;;5.3;;
51226;SDS011;42714;48.260;10.980;2023-09-08T10:40:51;8.9;;;5.5;;
51226;SDS011;42714;48.260;10.980;2023-09-08T10:45:51;9.6;;;4.8;;
51226;SDS011;42714;48.260;10.980;2023-09-08T10:50:51;9.5;;;4.4;;
51226;SDS011;42714;48.260;10.980;2023-09-08T10:55:52;8.9;;;4.7;;
51226;SDS011;42714;48.260;10.980;2023-09-08T11:00:51;12.7;;;4.4;;
51226;SDS011;42714;48.260;10.980;2023-09-08T11:05:51;6.4;;;4.1;;
51226;SDS011;42714;48.260;10.980;2023-09-08T11:10:51;8.3;;;4.3;;
51226;SDS011;42714;48.260;10.980;2023-09-08T11:15:54;12.3;;;4.9;;
51226;SDS011;42714;48.260;10.980;2023-09-08T11:20:51;7.3;;;4.7;;
51226;SDS011;42714;48.260;10.980;2023-09-08T11:25:52;12.6;;;4.4;;
51226;SDS011;42714;48.260;10.980;2023-09-08T11:30:51;9.9;;;4.6;;
51226;SDS011;42714;48.260;10.980;2023-09-08T11:35:52;10.5;;;4.8;;
51226;SDS011;42714;48.260;10.980;2023-09-08T11:40:51;11.8;;;4.8;;
51226;SDS011;42714;48.260;10.980;2023-09-08T11:45:51;7.8;;;4.1;;
51226;SDS011;42714;48.260;10.980;2023-09-08T11:50:53;10.5;;;4.7;;
51226;SDS011;42714;48.260;10.980;2023-09-08T11:55:51;8.7;;;4.7;;
51226;SDS011;42714;48.260;10.980;2023-09-08T12:00:51;8.5;;;4.9;;
51226;SDS011;42714;48.260;10.980;2023-09-08T12:05:51;9.3;;;4.6;;
51226;SDS011;42714;48.260;10.980;2023-09-08T12:10:53;8.2;;;4.5;;
51226;SDS011;42714;48.260;10.980;2023-09-08T12:15:51;7.9;;;4.2;;
51226;SDS011;42714;48.260;10.980;2023-09-08T12:21:02;8.1;;;3.9;;
51226;SDS011;42714;48.260;10.980;2023-09-08T12:25:51;6.6;;;4.3;;
51226;SDS011;42714;48.260;10.980;2023-09-08T12:30:51;6.9;;;3.9;;
51226;SDS011;42714;48.260;10.980;2023-09-08T12:35:51;12.5;;;4.3;;
51226;SDS011;42714;48.260;10.980;2023-09-08T12:40:51;10.5;;;4.4;;
51226;SDS011;42714;48.260;10.980;2023-09-08T12:45:51;7.4;;;4.2;;
51226;SDS011;42714;48.260;10.980;2023-09-08T12:50:51;10.9;;;4.2;;
51226;SDS011;42714;48.260;10.980;2023-09-08T12:55:51;7.8;;;4.5;;
51226;SDS011;42714;48.260;10.980;2023-09-08T13:00:51;8.9;;;4.3;;
51226;SDS011;42714;48.260;10.980;2023-09-08T13:05:51;8.8;;;4.3;;
51226;SDS011;42714;48.260;10.980;2023-09-08T13:10:51;10.8;;;4.6;;
51226;SDS011;42714;48.260;10.980;2023-09-08T13:15:51;8.4;;;4.2;;
51226;SDS011;42714;48.260;10.980;2023-09-08T13:20:51;7.4;;;4.3;;
51226;SDS011;42714;48.260;10.980;2023-09-08T13:25:51;19.1;;;5.4;;
51226;SDS011;42714;48.260;10.980;2023-09-08T13:30:51;10.7;;;4.8;;
51226;SDS011;42714;48.260;10.980;2023-09-08T13:35:51;16.1;;;5.0;;
51226;SDS011;42714;48.260;10.980;2023-09-08T13:40:51;12.6;;;4.9;;
51226;SDS011;42714;48.260;10.980;2023-09-08T13:45:51;10.1;;;5.0;;
51226;SDS011;42714;48.260;10.980;2023-09-08T13:50:51;8.1;;;4.5;;
51226;SDS011;42714;48.260;10.980;2023-09-08T13:55:51;14.3;;;4.5;;
51226;SDS011;42714;48.260;10.980;2023-09-08T14:00:51;8.0;;;3.9;;
51226;SDS011;42714;48.260;10.980;2023-09-08T14:05:51;10.3;;;4.2;;
51226;SDS011;42714;48.260;10.980;2023-09-08T14:10:52;10.6;;;5.1;;
51226;SDS011;42714;48.260;10.980;2023-09-08T14:15:51;7.8;;;4.4;;
51226;SDS011;42714;48.260;10.980;2023-09-08T14:20:51;10.2;;;4.2;;
51226;SDS011;42714;48.260;10.980;2023-09-08T14:25:51;8.7;;;4.4;;
51226;SDS011;42714;48.260;10.980;2023-09-08T14:30:52;10.2;;;4.1;;
51226;SDS011;42714;48.260;10.980;2023-09-08T14:35:51;8.7;;;4.1;;
51226;SDS011;42714;48.260;10.980;2023-09-08T14:45:51;8.9;;;4.1;;
51226;SDS011;42714;48.260;10.980;2023-09-08T14:50:51;10.3;;;4.8;;
51226;SDS011;42714;48.260;10.980;2023-09-08T14:55:51;9.1;;;4.5;;
51226;SDS011;42714;48.260;10.980;2023-09-08T15:00:51;6.4;;;4.5;;
51226;SDS011;42714;48.260;10.980;2023-09-08T15:05:51;7.3;;;4.4;;
51226;SDS011;42714;48.260;10.980;2023-09-08T15:10:51;7.5;;;4.4;;
51226;SDS011;42714;48.260;10.980;2023-09-08T15:15:51;10.1;;;4.2;;
51226;SDS011;42714;48.260;10.980;2023-09-08T15:20:52;9.6;;;4.6;;
51226;SDS011;42714;48.260;10.980;2023-09-08T15:25:52;8.6;;;4.4;;
51226;SDS011;42714;48.260;10.980;2023-09-08T15:30:52;10.2;;;4.5;;
51226;SDS011;42714;48.260;10.980;2023-09-08T15:35:51;7.2;;;4.7;;
51226;SDS011;42714;48.260;10.980;2023-09-08T15:45:51;13.6;;;5.0;;
51226;SDS011;42714;48.260;10.980;2023-09-08T15:50:51;11.0;;;4.9;;
51226;SDS011;42714;48.260;10.980;2023-09-08T15:55:51;11.0;;;5.2;;
51226;SDS011;42714;48.260;10.980;2023-09-08T16:00:51;11.8;;;5.1;;
51226;SDS011;42714;48.260;10.980;2023-09-08T16:05:51;8.4;;;5.5;;
51226;SDS011;42714;48.260;10.980;2023-09-08T16:10:51;10.2;;;5.4;;
51226;SDS011;42714;48.260;10.980;2023-09-08T16:15:51;8.0;;;5.4;;
51226;SDS011;42714;48.260;10.980;2023-09-08T16:20:51;9.2;;;5.0;;
51226;SDS011;42714;48.260;10.980;2023-09-08T16:25:51;9.7;;;5.2;;
51226;SDS011;42714;48.260;10.980;2023-09-08T16:30:51;10.2;;;4.9;;
51226;SDS011;42714;48.260;10.980;2023-09-08T16:35:53;12.4;;;6.1;;
51226;SDS011;42714;48.260;10.980;2023-09-08T16:40:51;13.0;;;5.1;;
51226;SDS011;42714;48.260;10.980;2023-09-08T16:45:51;13.7;;;5.7;;
51226;SDS011;42714;48.260;10.980;2023-09-08T16:50:51;11.6;;;5.9;;
51226;SDS011;42714;48.260;10.980;2023-09-08T16:55:51;12.7;;;5.7;;
51226;SDS011;42714;48.260;10.980;2023-09-08T17:00:51;9.3;;;5.5;;
51226;SDS011;42714;48.260;10.980;2023-09-08T17:05:51;14.2;;;5.9;;
51226;SDS011;42714;48.260;10.980;2023-09-08T17:10:51;12.5;;;6.4;;
51226;SDS011;42714;48.260;10.980;2023-09-08T17:15:51;12.1;;;6.5;;
51226;SDS011;42714;48.260;10.980;2023-09-08T17:20:51;13.0;;;6.1;;
51226;SDS011;42714;48.260;10.980;2023-09-08T17:25:51;12.5;;;5.9;;
51226;SDS011;42714;48.260;10.980;2023-09-08T17:30:52;14.4;;;6.4;;
51226;SDS011;42714;48.260;10.980;2023-09-08T17:35:51;15.3;;;7.1;;
51226;SDS011;42714;48.260;10.980;2023-09-08T17:40:51;15.8;;;7.5;;
51226;SDS011;42714;48.260;10.980;2023-09-08T17:45:51;24.9;;;11.8;;
51226;SDS011;42714;48.260;10.980;2023-09-08T17:50:51;16.1;;;8.3;;
51226;SDS011;42714;48.260;10.980;2023-09-08T17:55:51;13.5;;;7.9;;
51226;SDS011;42714;48.260;10.980;2023-09-08T18:00:51;18.0;;;7.7;;
51226;SDS011;42714;48.260;10.980;2023-09-08T18:05:51;11.6;;;7.4;;
51226;SDS011;42714;48.260;10.980;2023-09-08T18:20:52;15.4;;;8.6;;
51226;SDS011;42714;48.260;10.980;2023-09-08T18:25:52;19.6;;;8.6;;
51226;SDS011;42714;48.260;10.980;2023-09-08T18:30:51;19.1;;;8.9;;
51226;SDS011;42714;48.260;10.980;2023-09-08T18:35:51;19.6;;;9.0;;
51226;SDS011;42714;48.260;10.980;2023-09-08T18:40:51;15.4;;;8.7;;
51226;SDS011;42714;48.260;10.980;2023-09-08T18:45:51;17.3;;;9.1;;
51226;SDS011;42714;48.260;10.980;2023-09-08T18:50:51;17.9;;;9.2;;
51226;SDS011;42714;48.260;10.980;2023-09-08T18:55:51;15.8;;;9.0;;
51226;SDS011;42714;48.260;10.980;2023-09-08T19:00:52;16.1;;;9.2;;
51226;SDS011;42714;48.260;10.980;2023-09-08T19:05:52;20.9;;;12.0;;
51226;SDS011;42714;48.260;10.980;2023-09-08T19:10:52;24.8;;;14.3;;
51226;SDS011;42714;48.260;10.980;2023-09-08T19:15:52;36.0;;;22.7;;
51226;SDS011;42714;48.260;10.980;2023-09-08T19:20:52;21.3;;;14.2;;
51226;SDS011;42714;48.260;10.980;2023-09-08T19:25:52;19.2;;;11.0;;
51226;SDS011;42714;48.260;10.980;2023-09-08T19:30:52;24.5;;;13.9;;
51226;SDS011;42714;48.260;10.980;2023-09-08T19:35:52;20.5;;;12.9;;
51226;SDS011;42714;48.260;10.980;2023-09-08T19:45:52;25.7;;;17.5;;
51226;SDS011;42714;48.260;10.980;2023-09-08T19:50:52;19.0;;;12.4;;
51226;SDS011;42714;48.260;10.980;2023-09-08T19:55:52;23.3;;;15.2;;
51226;SDS011;42714;48.260;10.980;2023-09-08T20:00:52;31.2;;;20.0;;
51226;SDS011;42714;48.260;10.980;2023-09-08T20:05:52;32.9;;;18.8;;
51226;SDS011;42714;48.260;10.980;2023-09-08T20:10:52;32.1;;;20.3;;
51226;SDS011;42714;48.260;10.980;2023-09-08T20:20:53;23.9;;;14.4;;
51226;SDS011;42714;48.260;10.980;2023-09-08T20:25:52;29.3;;;18.5;;
51226;SDS011;42714;48.260;10.980;2023-09-08T20:30:52;33.0;;;14.4;;
51226;SDS011;42714;48.260;10.980;2023-09-08T20:35:52;25.2;;;12.4;;
51226;SDS011;42714;48.260;10.980;2023-09-08T20:40:52;24.9;;;12.8;;
51226;SDS011;42714;48.260;10.980;2023-09-08T20:45:52;25.5;;;15.5;;
51226;SDS011;42714;48.260;10.980;2023-09-08T20:55:52;29.5;;;15.1;;
51226;SDS011;42714;48.260;10.980;2023-09-08T21:00:52;23.2;;;14.7;;
51226;SDS011;42714;48.260;10.980;2023-09-08T21:05:52;26.2;;;15.3;;
51226;SDS011;42714;48.260;10.980;2023-09-08T21:10:54;31.7;;;16.0;;
51226;SDS011;42714;48.260;10.980;2023-09-08T21:15:52;29.0;;;15.8;;
51226;SDS011;42714;48.260;10.980;2023-09-08T21:20:52;26.9;;;15.5;;
51226;SDS011;42714;48.260;10.980;2023-09-08T21:25:52;28.2;;;16.6;;
51226;SDS011;42714;48.260;10.980;2023-09-08T21:31:01;23.6;;;14.4;;
51226;SDS011;42714;48.260;10.980;2023-09-08T21:35:52;23.0;;;14.2;;
51226;SDS011;42714;48.260;10.980;2023-09-08T21:40:52;26.3;;;14.8;;
51226;SDS011;42714;48.260;10.980;2023-09-08T21:46:00;22.7;;;13.6;;
51226;SDS011;42714;48.260;10.980;2023-09-08T21:50:52;26.0;;;13.9;;
51226;SDS011;42714;48.260;10.980;2023-09-08T21:55:52;26.7;;;14.5;;
51226;SDS011;42714;48.260;10.980;2023-09-08T22:00:52;25.4;;;13.9;;
51226;SDS011;42714;48.260;10.980;2023-09-08T22:15:52;27.3;;;15.6;;
51226;SDS011;42714;48.260;10.980;2023-09-08T22:20:52;25.8;;;14.8;;
51226;SDS011;42714;48.260;10.980;2023-09-08T22:25:52;27.8;;;15.0;;
51226;SDS011;42714;48.260;10.980;2023-09-08T22:30:52;25.2;;;15.2;;
51226;SDS011;42714;48.260;10.980;2023-09-08T22:35:52;56.8;;;20.2;;
51226;SDS011;42714;48.260;10.980;2023-09-08T22:40:52;33.3;;;16.3;;
51226;SDS011;42714;48.260;10.980;2023-09-08T22:45:52;28.5;;;16.3;;
51226;SDS011;42714;48.260;10.980;2023-09-08T22:50:52;31.4;;;16.5;;
51226;SDS011;42714;48.260;10.980;2023-09-08T22:55:52;25.6;;;16.3;;
51226;SDS011;42714;48.260;10.980;2023-09-08T23:00:52;22.7;;;15.7;;
51226;SDS011;42714;48.260;10.980;2023-09-08T23:05:52;32.9;;;16.9;;
51226;SDS011;42714;48.260;10.980;2023-09-08T23:10:52;30.5;;;16.9;;
51226;SDS011;42714;48.260;10.980;2023-09-08T23:15:52;26.6;;;16.0;;
51226;SDS011;42714;48.260;10.980;2023-09-08T23:20:52;26.8;;;17.9;;
51226;SDS011;42714;48.260;10.980;2023-09-08T23:25:52;28.2;;;17.8;;
51226;SDS011;42714;48.260;10.980;2023-09-08T23:30:52;30.0;;;19.4;;
51226;SDS011;42714;48.260;10.980;2023-09-08T23:35:52;34.7;;;23.9;;
51226;SDS011;42714;48.260;10.980;2023-09-08T23:40:52;36.4;;;22.7;;
51226;SDS011;42714;48.260;10.980;2023-09-08T23:45:52;31.5;;;20.4;;
51226;SDS011;42714;48.260;10.980;2023-09-08T23:50:53;35.0;;;23.0;;
51226;SDS011;42714;48.260;10.980;2023-09-08T23:55:52;38.5;;;24.8;;
